sensor_id;sensor_type;location;lat;lon;timestamp;P1;durP1;ratioP1;P2;durP2;ratioP2
25988;SDS011;13778;48.236;9.894;2022-08-19T00:04:19;21.40;;;19.17;;
25988;SDS011;13778;48.236;9.894;2022-08-19T00:07:10;23.13;;;19.30;;
25988;SDS011;13778;48.236;9.894;2022-08-19T00:10:01;22.05;;;19.85;;
25988;SDS011;13778;48.236;9.894;2022-08-19T00:12:52;22.90;;;20.60;;
25988;SDS011;13778;48.236;9.894;2022-08-19T00:15:44;23.08;;;20.85;;
25988;SDS011;13778;48.236;9.894;2022-08-19T00:18:34;23.13;;;20.80;;
25988;SDS011;13778;48.236;9.894;2022-08-19T00:21:25;22.55;;;20.13;;
25988;SDS011;13778;48.236;9.894;2022-08-19T00:24:16;24.50;;;21.30;;
25988;SDS011;13778;48.236;9.894;2022-08-19T00:27:06;22.67;;;20.35;;
25988;SDS011;13778;48.236;9.894;2022-08-19T00:29:56;25.65;;;21.60;;
25988;SDS011;13778;48.236;9.894;2022-08-19T00:32:49;24.90;;;21.40;;
25988;SDS011;13778;48.236;9.894;2022-08-19T00:35:40;21.83;;;19.73;;
25988;SDS011;13778;48.236;9.894;2022-08-19T00:38:30;23.08;;;20.80;;
25988;SDS011;13778;48.236;9.894;2022-08-19T00:41:21;23.63;;;21.10;;
25988;SDS011;13778;48.236;9.894;2022-08-19T00:44:15;25.70;;;21.58;;
25988;SDS011;13778;48.236;9.894;2022-08-19T00:47:05;24.15;;;21.60;;
25988;SDS011;13778;48.236;9.894;2022-08-19T00:49:57;25.20;;;22.52;;
25988;SDS011;13778;48.236;9.894;2022-08-19T00:52:49;26.55;;;21.65;;
25988;SDS011;13778;48.236;9.894;2022-08-19T00:55:40;23.88;;;21.13;;
25988;SDS011;13778;48.236;9.894;2022-08-19T00:58:33;24.65;;;20.63;;
25988;SDS011;13778;48.236;9.894;2022-08-19T01:01:24;24.30;;;21.80;;
25988;SDS011;13778;48.236;9.894;2022-08-19T01:04:14;27.17;;;24.35;;
25988;SDS011;13778;48.236;9.894;2022-08-19T01:07:06;25.33;;;22.73;;
25988;SDS011;13778;48.236;9.894;2022-08-19T01:09:57;26.35;;;23.15;;
25988;SDS011;13778;48.236;9.894;2022-08-19T01:12:48;25.45;;;22.88;;
25988;SDS011;13778;48.236;9.894;2022-08-19T01:15:41;26.63;;;23.83;;
25988;SDS011;13778;48.236;9.894;2022-08-19T01:18:32;28.55;;;24.33;;
25988;SDS011;13778;48.236;9.894;2022-08-19T01:21:26;26.15;;;23.35;;
25988;SDS011;13778;48.236;9.894;2022-08-19T01:24:19;27.17;;;24.38;;
25988;SDS011;13778;48.236;9.894;2022-08-19T01:27:10;29.52;;;25.05;;
25988;SDS011;13778;48.236;9.894;2022-08-19T01:30:00;28.17;;;25.08;;
25988;SDS011;13778;48.236;9.894;2022-08-19T01:32:51;29.38;;;25.80;;
25988;SDS011;13778;48.236;9.894;2022-08-19T01:35:42;29.70;;;26.50;;
25988;SDS011;13778;48.236;9.894;2022-08-19T01:38:34;29.92;;;26.55;;
25988;SDS011;13778;48.236;9.894;2022-08-19T01:41:26;30.58;;;27.20;;
25988;SDS011;13778;48.236;9.894;2022-08-19T01:44:17;31.30;;;27.90;;
25988;SDS011;13778;48.236;9.894;2022-08-19T01:47:09;33.25;;;29.73;;
25988;SDS011;13778;48.236;9.894;2022-08-19T01:50:00;34.67;;;29.35;;
25988;SDS011;13778;48.236;9.894;2022-08-19T01:52:50;32.15;;;28.30;;
25988;SDS011;13778;48.236;9.894;2022-08-19T01:55:41;32.42;;;28.90;;
25988;SDS011;13778;48.236;9.894;2022-08-19T01:58:35;37.60;;;32.15;;
25988;SDS011;13778;48.236;9.894;2022-08-19T02:01:27;33.58;;;29.98;;
25988;SDS011;13778;48.236;9.894;2022-08-19T02:04:20;34.67;;;30.38;;
25988;SDS011;13778;48.236;9.894;2022-08-19T02:07:12;35.55;;;31.80;;
25988;SDS011;13778;48.236;9.894;2022-08-19T02:10:03;36.85;;;32.00;;
25988;SDS011;13778;48.236;9.894;2022-08-19T02:12:53;36.88;;;32.85;;
25988;SDS011;13778;48.236;9.894;2022-08-19T02:15:45;37.28;;;33.28;;
25988;SDS011;13778;48.236;9.894;2022-08-19T02:18:36;34.65;;;30.90;;
25988;SDS011;13778;48.236;9.894;2022-08-19T02:21:27;36.25;;;32.30;;
25988;SDS011;13778;48.236;9.894;2022-08-19T02:24:17;37.07;;;33.03;;
25988;SDS011;13778;48.236;9.894;2022-08-19T02:27:08;37.60;;;33.55;;
25988;SDS011;13778;48.236;9.894;2022-08-19T02:29:59;43.20;;;33.50;;
25988;SDS011;13778;48.236;9.894;2022-08-19T02:32:51;35.55;;;31.67;;
25988;SDS011;13778;48.236;9.894;2022-08-19T02:35:41;37.83;;;31.58;;
25988;SDS011;13778;48.236;9.894;2022-08-19T02:38:32;35.67;;;31.53;;
25988;SDS011;13778;48.236;9.894;2022-08-19T02:41:24;36.90;;;31.17;;
25988;SDS011;13778;48.236;9.894;2022-08-19T02:44:16;34.70;;;29.98;;
25988;SDS011;13778;48.236;9.894;2022-08-19T02:47:06;34.22;;;30.48;;
25988;SDS011;13778;48.236;9.894;2022-08-19T02:49:58;37.30;;;32.47;;
25988;SDS011;13778;48.236;9.894;2022-08-19T02:52:50;37.33;;;33.00;;
25988;SDS011;13778;48.236;9.894;2022-08-19T02:55:44;37.63;;;31.92;;
25988;SDS011;13778;48.236;9.894;2022-08-19T02:58:35;34.83;;;30.88;;
25988;SDS011;13778;48.236;9.894;2022-08-19T03:01:27;37.88;;;32.78;;
25988;SDS011;13778;48.236;9.894;2022-08-19T03:04:18;36.17;;;32.28;;
25988;SDS011;13778;48.236;9.894;2022-08-19T03:07:12;35.03;;;30.95;;
25988;SDS011;13778;48.236;9.894;2022-08-19T03:10:03;35.67;;;31.48;;
25988;SDS011;13778;48.236;9.894;2022-08-19T03:12:54;42.28;;;33.78;;
25988;SDS011;13778;48.236;9.894;2022-08-19T03:15:45;38.45;;;32.10;;
25988;SDS011;13778;48.236;9.894;2022-08-19T03:18:36;36.25;;;32.13;;
25988;SDS011;13778;48.236;9.894;2022-08-19T03:21:27;36.45;;;32.20;;
25988;SDS011;13778;48.236;9.894;2022-08-19T03:24:19;35.67;;;30.17;;
25988;SDS011;13778;48.236;9.894;2022-08-19T03:27:09;37.40;;;31.10;;
25988;SDS011;13778;48.236;9.894;2022-08-19T03:30:01;43.53;;;32.70;;
25988;SDS011;13778;48.236;9.894;2022-08-19T03:32:51;36.08;;;32.10;;
25988;SDS011;13778;48.236;9.894;2022-08-19T03:35:42;34.55;;;30.85;;
25988;SDS011;13778;48.236;9.894;2022-08-19T03:38:34;37.00;;;32.95;;
25988;SDS011;13778;48.236;9.894;2022-08-19T03:41:27;40.35;;;33.17;;
25988;SDS011;13778;48.236;9.894;2022-08-19T03:44:18;39.63;;;34.72;;
25988;SDS011;13778;48.236;9.894;2022-08-19T03:50:05;39.80;;;32.47;;
25988;SDS011;13778;48.236;9.894;2022-08-19T03:52:57;35.13;;;31.33;;
25988;SDS011;13778;48.236;9.894;2022-08-19T03:55:48;40.40;;;31.27;;
25988;SDS011;13778;48.236;9.894;2022-08-19T03:58:40;34.50;;;29.42;;
25988;SDS011;13778;48.236;9.894;2022-08-19T04:01:30;41.78;;;32.45;;
25988;SDS011;13778;48.236;9.894;2022-08-19T04:04:21;43.15;;;32.72;;
25988;SDS011;13778;48.236;9.894;2022-08-19T04:07:13;35.60;;;30.77;;
25988;SDS011;13778;48.236;9.894;2022-08-19T04:10:05;35.53;;;30.40;;
25988;SDS011;13778;48.236;9.894;2022-08-19T04:12:55;38.63;;;32.15;;
25988;SDS011;13778;48.236;9.894;2022-08-19T04:15:47;44.08;;;32.95;;
25988;SDS011;13778;48.236;9.894;2022-08-19T04:18:39;45.50;;;35.42;;
25988;SDS011;13778;48.236;9.894;2022-08-19T04:21:30;37.35;;;33.00;;
25988;SDS011;13778;48.236;9.894;2022-08-19T04:24:20;40.97;;;33.67;;
25988;SDS011;13778;48.236;9.894;2022-08-19T04:27:11;40.30;;;32.72;;
25988;SDS011;13778;48.236;9.894;2022-08-19T04:30:01;40.60;;;31.90;;
25988;SDS011;13778;48.236;9.894;2022-08-19T04:32:53;38.90;;;31.85;;
25988;SDS011;13778;48.236;9.894;2022-08-19T04:35:44;39.25;;;33.15;;
25988;SDS011;13778;48.236;9.894;2022-08-19T04:38:35;37.13;;;31.95;;
25988;SDS011;13778;48.236;9.894;2022-08-19T04:41:26;36.80;;;32.80;;
25988;SDS011;13778;48.236;9.894;2022-08-19T04:44:34;42.60;;;33.75;;
25988;SDS011;13778;48.236;9.894;2022-08-19T04:47:25;38.37;;;33.90;;
25988;SDS011;13778;48.236;9.894;2022-08-19T04:50:17;40.17;;;31.13;;
25988;SDS011;13778;48.236;9.894;2022-08-19T04:55:58;40.13;;;34.25;;
25988;SDS011;13778;48.236;9.894;2022-08-19T04:58:48;38.17;;;32.13;;
25988;SDS011;13778;48.236;9.894;2022-08-19T05:01:42;41.17;;;35.42;;
25988;SDS011;13778;48.236;9.894;2022-08-19T05:04:32;38.22;;;32.05;;
25988;SDS011;13778;48.236;9.894;2022-08-19T05:07:24;47.10;;;36.88;;
25988;SDS011;13778;48.236;9.894;2022-08-19T05:10:15;42.72;;;32.22;;
25988;SDS011;13778;48.236;9.894;2022-08-19T05:13:05;43.38;;;33.28;;
25988;SDS011;13778;48.236;9.894;2022-08-19T05:15:59;42.88;;;35.30;;
25988;SDS011;13778;48.236;9.894;2022-08-19T05:18:49;38.25;;;31.92;;
25988;SDS011;13778;48.236;9.894;2022-08-19T05:21:58;43.10;;;35.05;;
25988;SDS011;13778;48.236;9.894;2022-08-19T05:25:10;39.47;;;33.80;;
25988;SDS011;13778;48.236;9.894;2022-08-19T05:28:01;44.58;;;35.03;;
25988;SDS011;13778;48.236;9.894;2022-08-19T05:30:51;44.13;;;36.17;;
25988;SDS011;13778;48.236;9.894;2022-08-19T05:33:44;42.85;;;33.33;;
25988;SDS011;13778;48.236;9.894;2022-08-19T05:36:35;41.78;;;33.92;;
25988;SDS011;13778;48.236;9.894;2022-08-19T05:39:28;48.00;;;34.83;;
25988;SDS011;13778;48.236;9.894;2022-08-19T05:42:20;44.22;;;34.97;;
25988;SDS011;13778;48.236;9.894;2022-08-19T05:45:11;43.95;;;33.28;;
25988;SDS011;13778;48.236;9.894;2022-08-19T05:48:02;43.15;;;35.35;;
25988;SDS011;13778;48.236;9.894;2022-08-19T05:50:52;47.70;;;35.80;;
25988;SDS011;13778;48.236;9.894;2022-08-19T05:53:43;43.35;;;35.13;;
25988;SDS011;13778;48.236;9.894;2022-08-19T05:56:34;46.85;;;35.00;;
25988;SDS011;13778;48.236;9.894;2022-08-19T05:59:28;47.60;;;35.55;;
25988;SDS011;13778;48.236;9.894;2022-08-19T06:02:18;44.10;;;35.53;;
25988;SDS011;13778;48.236;9.894;2022-08-19T06:05:09;43.72;;;34.95;;
25988;SDS011;13778;48.236;9.894;2022-08-19T06:08:00;41.80;;;33.40;;
25988;SDS011;13778;48.236;9.894;2022-08-19T06:10:50;44.78;;;34.58;;
25988;SDS011;13778;48.236;9.894;2022-08-19T06:13:41;45.00;;;35.60;;
25988;SDS011;13778;48.236;9.894;2022-08-19T06:16:33;45.13;;;35.55;;
25988;SDS011;13778;48.236;9.894;2022-08-19T06:19:23;43.25;;;33.97;;
25988;SDS011;13778;48.236;9.894;2022-08-19T06:22:14;51.83;;;36.85;;
25988;SDS011;13778;48.236;9.894;2022-08-19T06:25:05;46.60;;;36.17;;
25988;SDS011;13778;48.236;9.894;2022-08-19T06:27:56;43.37;;;32.93;;
25988;SDS011;13778;48.236;9.894;2022-08-19T06:30:46;45.78;;;35.28;;
25988;SDS011;13778;48.236;9.894;2022-08-19T06:33:38;44.95;;;33.92;;
25988;SDS011;13778;48.236;9.894;2022-08-19T06:39:22;50.50;;;36.85;;
25988;SDS011;13778;48.236;9.894;2022-08-19T06:42:13;47.67;;;35.92;;
25988;SDS011;13778;48.236;9.894;2022-08-19T06:45:05;48.25;;;35.42;;
25988;SDS011;13778;48.236;9.894;2022-08-19T06:47:57;51.70;;;36.38;;
25988;SDS011;13778;48.236;9.894;2022-08-19T06:50:49;52.35;;;37.67;;
25988;SDS011;13778;48.236;9.894;2022-08-19T06:53:41;45.10;;;35.22;;
25988;SDS011;13778;48.236;9.894;2022-08-19T06:56:35;51.08;;;38.25;;
25988;SDS011;13778;48.236;9.894;2022-08-19T06:59:26;47.00;;;35.28;;
25988;SDS011;13778;48.236;9.894;2022-08-19T07:02:17;47.75;;;37.25;;
25988;SDS011;13778;48.236;9.894;2022-08-19T07:05:08;46.53;;;36.43;;
25988;SDS011;13778;48.236;9.894;2022-08-19T07:08:00;47.85;;;36.67;;
25988;SDS011;13778;48.236;9.894;2022-08-19T07:10:50;47.15;;;37.28;;
25988;SDS011;13778;48.236;9.894;2022-08-19T07:13:41;46.85;;;37.50;;
25988;SDS011;13778;48.236;9.894;2022-08-19T07:16:32;47.17;;;37.47;;
25988;SDS011;13778;48.236;9.894;2022-08-19T07:19:23;49.22;;;36.45;;
25988;SDS011;13778;48.236;9.894;2022-08-19T07:22:15;49.75;;;36.95;;
25988;SDS011;13778;48.236;9.894;2022-08-19T07:27:58;49.50;;;37.53;;
25988;SDS011;13778;48.236;9.894;2022-08-19T07:30:49;47.05;;;35.47;;
25988;SDS011;13778;48.236;9.894;2022-08-19T07:33:40;52.80;;;38.78;;
25988;SDS011;13778;48.236;9.894;2022-08-19T07:36:32;53.63;;;38.03;;
25988;SDS011;13778;48.236;9.894;2022-08-19T07:39:24;52.55;;;38.80;;
25988;SDS011;13778;48.236;9.894;2022-08-19T07:42:15;53.33;;;38.63;;
25988;SDS011;13778;48.236;9.894;2022-08-19T07:45:08;50.33;;;37.78;;
25988;SDS011;13778;48.236;9.894;2022-08-19T07:47:58;48.72;;;38.53;;
25988;SDS011;13778;48.236;9.894;2022-08-19T07:50:50;50.55;;;38.35;;
25988;SDS011;13778;48.236;9.894;2022-08-19T07:53:40;53.05;;;39.50;;
25988;SDS011;13778;48.236;9.894;2022-08-19T07:56:30;56.70;;;39.28;;
25988;SDS011;13778;48.236;9.894;2022-08-19T07:59:21;50.88;;;38.25;;
25988;SDS011;13778;48.236;9.894;2022-08-19T08:02:14;51.88;;;39.20;;
25988;SDS011;13778;48.236;9.894;2022-08-19T08:05:04;58.65;;;39.42;;
25988;SDS011;13778;48.236;9.894;2022-08-19T08:08:12;52.97;;;40.05;;
25988;SDS011;13778;48.236;9.894;2022-08-19T08:11:25;53.35;;;39.05;;
25988;SDS011;13778;48.236;9.894;2022-08-19T08:14:16;55.58;;;38.97;;
25988;SDS011;13778;48.236;9.894;2022-08-19T08:17:08;52.15;;;37.20;;
25988;SDS011;13778;48.236;9.894;2022-08-19T08:20:00;51.88;;;38.75;;
25988;SDS011;13778;48.236;9.894;2022-08-19T08:22:51;59.95;;;40.80;;
25988;SDS011;13778;48.236;9.894;2022-08-19T08:26:00;54.97;;;39.22;;
25988;SDS011;13778;48.236;9.894;2022-08-19T08:28:51;55.90;;;39.50;;
25988;SDS011;13778;48.236;9.894;2022-08-19T08:31:42;53.70;;;37.65;;
25988;SDS011;13778;48.236;9.894;2022-08-19T08:34:33;54.58;;;37.92;;
25988;SDS011;13778;48.236;9.894;2022-08-19T08:37:24;41.63;;;33.28;;
25988;SDS011;13778;48.236;9.894;2022-08-19T08:43:07;48.38;;;35.83;;
25988;SDS011;13778;48.236;9.894;2022-08-19T08:45:59;44.92;;;34.38;;
25988;SDS011;13778;48.236;9.894;2022-08-19T08:48:51;40.53;;;31.90;;
25988;SDS011;13778;48.236;9.894;2022-08-19T08:51:44;39.45;;;31.17;;
25988;SDS011;13778;48.236;9.894;2022-08-19T08:54:38;36.85;;;30.52;;
25988;SDS011;13778;48.236;9.894;2022-08-19T08:57:31;33.40;;;26.50;;
25988;SDS011;13778;48.236;9.894;2022-08-19T09:00:24;35.50;;;27.67;;
25988;SDS011;13778;48.236;9.894;2022-08-19T09:03:17;31.20;;;24.25;;
25988;SDS011;13778;48.236;9.894;2022-08-19T09:06:11;29.35;;;23.95;;
25988;SDS011;13778;48.236;9.894;2022-08-19T09:09:03;26.50;;;22.85;;
25988;SDS011;13778;48.236;9.894;2022-08-19T09:11:56;25.33;;;21.98;;
25988;SDS011;13778;48.236;9.894;2022-08-19T09:14:50;27.08;;;22.35;;
25988;SDS011;13778;48.236;9.894;2022-08-19T09:17:42;27.45;;;21.60;;
25988;SDS011;13778;48.236;9.894;2022-08-19T09:20:33;25.23;;;21.52;;
25988;SDS011;13778;48.236;9.894;2022-08-19T09:23:24;26.80;;;21.85;;
25988;SDS011;13778;48.236;9.894;2022-08-19T09:26:16;28.90;;;23.48;;
25988;SDS011;13778;48.236;9.894;2022-08-19T09:29:08;27.27;;;23.17;;
25988;SDS011;13778;48.236;9.894;2022-08-19T09:31:59;24.85;;;20.45;;
25988;SDS011;13778;48.236;9.894;2022-08-19T09:34:49;27.40;;;22.83;;
25988;SDS011;13778;48.236;9.894;2022-08-19T09:37:43;26.77;;;22.20;;
25988;SDS011;13778;48.236;9.894;2022-08-19T09:40:34;24.92;;;20.85;;
25988;SDS011;13778;48.236;9.894;2022-08-19T09:43:24;23.98;;;19.40;;
25988;SDS011;13778;48.236;9.894;2022-08-19T09:46:18;27.40;;;21.52;;
25988;SDS011;13778;48.236;9.894;2022-08-19T09:49:10;25.40;;;20.75;;
25988;SDS011;13778;48.236;9.894;2022-08-19T09:52:00;24.08;;;20.52;;
25988;SDS011;13778;48.236;9.894;2022-08-19T09:54:51;24.33;;;21.15;;
25988;SDS011;13778;48.236;9.894;2022-08-19T09:57:41;26.17;;;22.95;;
25988;SDS011;13778;48.236;9.894;2022-08-19T10:00:32;26.63;;;21.58;;
25988;SDS011;13778;48.236;9.894;2022-08-19T10:03:24;32.10;;;24.67;;
25988;SDS011;13778;48.236;9.894;2022-08-19T10:06:15;28.55;;;21.83;;
25988;SDS011;13778;48.236;9.894;2022-08-19T10:09:07;26.17;;;22.17;;
25988;SDS011;13778;48.236;9.894;2022-08-19T10:11:58;25.70;;;20.70;;
25988;SDS011;13778;48.236;9.894;2022-08-19T10:14:50;24.30;;;19.00;;
25988;SDS011;13778;48.236;9.894;2022-08-19T10:17:42;24.38;;;18.50;;
25988;SDS011;13778;48.236;9.894;2022-08-19T10:20:34;22.73;;;17.58;;
25988;SDS011;13778;48.236;9.894;2022-08-19T10:23:25;19.63;;;16.45;;
25988;SDS011;13778;48.236;9.894;2022-08-19T10:26:20;20.35;;;18.17;;
25988;SDS011;13778;48.236;9.894;2022-08-19T10:29:12;18.33;;;16.15;;
25988;SDS011;13778;48.236;9.894;2022-08-19T10:32:05;20.15;;;16.30;;
25988;SDS011;13778;48.236;9.894;2022-08-19T10:34:57;21.48;;;16.70;;
25988;SDS011;13778;48.236;9.894;2022-08-19T10:37:49;19.58;;;17.48;;
25988;SDS011;13778;48.236;9.894;2022-08-19T10:43:29;20.77;;;17.70;;
25988;SDS011;13778;48.236;9.894;2022-08-19T10:46:20;22.50;;;18.48;;
25988;SDS011;13778;48.236;9.894;2022-08-19T10:52:02;20.63;;;17.48;;
25988;SDS011;13778;48.236;9.894;2022-08-19T10:55:11;20.25;;;16.65;;
25988;SDS011;13778;48.236;9.894;2022-08-19T10:58:19;18.10;;;16.20;;
25988;SDS011;13778;48.236;9.894;2022-08-19T11:04:01;20.65;;;17.08;;
25988;SDS011;13778;48.236;9.894;2022-08-19T11:06:51;21.17;;;16.35;;
25988;SDS011;13778;48.236;9.894;2022-08-19T11:09:42;18.85;;;15.95;;
25988;SDS011;13778;48.236;9.894;2022-08-19T11:12:35;20.30;;;16.58;;
25988;SDS011;13778;48.236;9.894;2022-08-19T11:15:27;19.20;;;15.60;;
25988;SDS011;13778;48.236;9.894;2022-08-19T11:18:18;18.87;;;16.27;;
25988;SDS011;13778;48.236;9.894;2022-08-19T11:21:10;16.65;;;14.90;;
25988;SDS011;13778;48.236;9.894;2022-08-19T11:26:52;18.60;;;15.90;;
25988;SDS011;13778;48.236;9.894;2022-08-19T11:29:47;21.08;;;13.18;;
25988;SDS011;13778;48.236;9.894;2022-08-19T11:32:37;18.55;;;14.80;;
25988;SDS011;13778;48.236;9.894;2022-08-19T11:35:27;22.05;;;15.65;;
25988;SDS011;13778;48.236;9.894;2022-08-19T11:38:18;20.23;;;16.35;;
25988;SDS011;13778;48.236;9.894;2022-08-19T11:41:09;18.20;;;15.80;;
25988;SDS011;13778;48.236;9.894;2022-08-19T11:43:59;20.73;;;16.85;;
25988;SDS011;13778;48.236;9.894;2022-08-19T11:46:53;24.35;;;16.60;;
25988;SDS011;13778;48.236;9.894;2022-08-19T11:49:45;22.23;;;16.85;;
25988;SDS011;13778;48.236;9.894;2022-08-19T11:52:35;23.87;;;16.90;;
25988;SDS011;13778;48.236;9.894;2022-08-19T11:55:26;21.00;;;17.27;;
25988;SDS011;13778;48.236;9.894;2022-08-19T11:58:16;17.77;;;15.32;;
25988;SDS011;13778;48.236;9.894;2022-08-19T12:01:07;27.33;;;17.58;;
25988;SDS011;13778;48.236;9.894;2022-08-19T12:04:01;20.50;;;15.95;;
25988;SDS011;13778;48.236;9.894;2022-08-19T12:06:53;26.02;;;16.20;;
25988;SDS011;13778;48.236;9.894;2022-08-19T12:09:44;19.63;;;16.13;;
25988;SDS011;13778;48.236;9.894;2022-08-19T12:12:34;18.80;;;16.80;;
25988;SDS011;13778;48.236;9.894;2022-08-19T12:15:27;18.15;;;15.45;;
25988;SDS011;13778;48.236;9.894;2022-08-19T12:18:18;19.27;;;16.85;;
25988;SDS011;13778;48.236;9.894;2022-08-19T12:21:10;21.20;;;17.17;;
25988;SDS011;13778;48.236;9.894;2022-08-19T12:24:03;20.52;;;17.58;;
25988;SDS011;13778;48.236;9.894;2022-08-19T12:26:54;20.70;;;18.50;;
25988;SDS011;13778;48.236;9.894;2022-08-19T12:29:45;22.75;;;19.25;;
25988;SDS011;13778;48.236;9.894;2022-08-19T12:32:36;24.75;;;17.52;;
25988;SDS011;13778;48.236;9.894;2022-08-19T12:35:26;25.90;;;19.25;;
25988;SDS011;13778;48.236;9.894;2022-08-19T12:38:19;23.25;;;19.55;;
25988;SDS011;13778;48.236;9.894;2022-08-19T12:41:13;30.10;;;20.88;;
25988;SDS011;13778;48.236;9.894;2022-08-19T12:44:04;26.65;;;20.58;;
25988;SDS011;13778;48.236;9.894;2022-08-19T12:46:55;24.30;;;21.38;;
25988;SDS011;13778;48.236;9.894;2022-08-19T12:49:45;25.15;;;22.05;;
25988;SDS011;13778;48.236;9.894;2022-08-19T12:52:36;29.33;;;20.85;;
25988;SDS011;13778;48.236;9.894;2022-08-19T12:55:28;31.63;;;22.35;;
25988;SDS011;13778;48.236;9.894;2022-08-19T12:58:19;24.58;;;21.17;;
25988;SDS011;13778;48.236;9.894;2022-08-19T13:01:10;24.73;;;21.80;;
25988;SDS011;13778;48.236;9.894;2022-08-19T13:04:01;23.77;;;21.27;;
25988;SDS011;13778;48.236;9.894;2022-08-19T13:06:51;24.52;;;21.88;;
25988;SDS011;13778;48.236;9.894;2022-08-19T13:09:41;27.30;;;22.50;;
25988;SDS011;13778;48.236;9.894;2022-08-19T13:12:33;24.70;;;22.13;;
25988;SDS011;13778;48.236;9.894;2022-08-19T13:15:24;25.55;;;22.77;;
25988;SDS011;13778;48.236;9.894;2022-08-19T13:18:14;29.17;;;22.27;;
25988;SDS011;13778;48.236;9.894;2022-08-19T13:21:05;24.15;;;21.58;;
25988;SDS011;13778;48.236;9.894;2022-08-19T13:26:47;23.92;;;20.98;;
25988;SDS011;13778;48.236;9.894;2022-08-19T13:29:40;24.67;;;21.40;;
25988;SDS011;13778;48.236;9.894;2022-08-19T13:32:48;26.33;;;22.63;;
25988;SDS011;13778;48.236;9.894;2022-08-19T13:35:57;26.42;;;21.05;;
25988;SDS011;13778;48.236;9.894;2022-08-19T13:38:49;25.00;;;21.23;;
25988;SDS011;13778;48.236;9.894;2022-08-19T13:41:43;21.47;;;18.13;;
25988;SDS011;13778;48.236;9.894;2022-08-19T13:44:36;20.40;;;18.20;;
25988;SDS011;13778;48.236;9.894;2022-08-19T13:47:28;20.08;;;17.88;;
25988;SDS011;13778;48.236;9.894;2022-08-19T13:50:20;16.63;;;14.93;;
25988;SDS011;13778;48.236;9.894;2022-08-19T13:53:11;15.98;;;14.35;;
25988;SDS011;13778;48.236;9.894;2022-08-19T13:56:04;16.23;;;13.65;;
25988;SDS011;13778;48.236;9.894;2022-08-19T13:58:55;13.68;;;12.02;;
25988;SDS011;13778;48.236;9.894;2022-08-19T14:01:46;11.40;;;10.20;;
25988;SDS011;13778;48.236;9.894;2022-08-19T14:04:38;12.38;;;9.65;;
25988;SDS011;13778;48.236;9.894;2022-08-19T14:07:28;11.80;;;10.63;;
25988;SDS011;13778;48.236;9.894;2022-08-19T14:10:19;11.85;;;9.88;;
25988;SDS011;13778;48.236;9.894;2022-08-19T14:13:12;11.50;;;9.10;;
25988;SDS011;13778;48.236;9.894;2022-08-19T14:16:06;11.30;;;9.50;;
25988;SDS011;13778;48.236;9.894;2022-08-19T14:18:56;11.52;;;8.68;;
25988;SDS011;13778;48.236;9.894;2022-08-19T14:21:48;12.77;;;9.07;;
25988;SDS011;13778;48.236;9.894;2022-08-19T14:27:29;9.40;;;8.50;;
25988;SDS011;13778;48.236;9.894;2022-08-19T14:30:20;9.80;;;8.80;;
25988;SDS011;13778;48.236;9.894;2022-08-19T14:33:11;11.00;;;10.00;;
25988;SDS011;13778;48.236;9.894;2022-08-19T14:36:03;10.20;;;9.00;;
25988;SDS011;13778;48.236;9.894;2022-08-19T14:38:54;8.80;;;8.00;;
25988;SDS011;13778;48.236;9.894;2022-08-19T14:41:46;9.20;;;8.40;;
25988;SDS011;13778;48.236;9.894;2022-08-19T14:44:37;9.65;;;8.75;;
25988;SDS011;13778;48.236;9.894;2022-08-19T14:47:27;12.02;;;10.15;;
25988;SDS011;13778;48.236;9.894;2022-08-19T14:50:18;13.77;;;12.05;;
25988;SDS011;13778;48.236;9.894;2022-08-19T14:53:09;14.60;;;13.15;;
25988;SDS011;13778;48.236;9.894;2022-08-19T14:56:06;16.38;;;14.60;;
25988;SDS011;13778;48.236;9.894;2022-08-19T14:58:57;17.90;;;15.25;;
25988;SDS011;13778;48.236;9.894;2022-08-19T15:01:50;21.05;;;17.13;;
25988;SDS011;13778;48.236;9.894;2022-08-19T15:04:40;19.90;;;17.40;;
25988;SDS011;13778;48.236;9.894;2022-08-19T15:07:31;20.92;;;18.73;;
25988;SDS011;13778;48.236;9.894;2022-08-19T15:10:21;20.48;;;18.33;;
25988;SDS011;13778;48.236;9.894;2022-08-19T15:13:14;20.75;;;18.55;;
25988;SDS011;13778;48.236;9.894;2022-08-19T15:16:06;23.38;;;20.35;;
25988;SDS011;13778;48.236;9.894;2022-08-19T15:21:47;22.40;;;20.00;;
25988;SDS011;13778;48.236;9.894;2022-08-19T15:24:38;23.63;;;21.13;;
25988;SDS011;13778;48.236;9.894;2022-08-19T15:27:28;23.98;;;21.45;;
25988;SDS011;13778;48.236;9.894;2022-08-19T15:30:21;24.60;;;21.92;;
25988;SDS011;13778;48.236;9.894;2022-08-19T15:33:12;24.05;;;21.45;;
25988;SDS011;13778;48.236;9.894;2022-08-19T15:36:03;24.52;;;21.48;;
25988;SDS011;13778;48.236;9.894;2022-08-19T15:38:54;34.50;;;23.20;;
25988;SDS011;13778;48.236;9.894;2022-08-19T15:41:44;25.63;;;22.83;;
25988;SDS011;13778;48.236;9.894;2022-08-19T15:44:36;26.67;;;23.88;;
25988;SDS011;13778;48.236;9.894;2022-08-19T15:47:28;29.38;;;23.50;;
25988;SDS011;13778;48.236;9.894;2022-08-19T15:50:19;25.95;;;23.15;;
25988;SDS011;13778;48.236;9.894;2022-08-19T15:53:10;25.90;;;23.20;;
25988;SDS011;13778;48.236;9.894;2022-08-19T15:56:00;26.70;;;23.90;;
25988;SDS011;13778;48.236;9.894;2022-08-19T15:58:51;27.20;;;23.77;;
25988;SDS011;13778;48.236;9.894;2022-08-19T16:01:59;28.25;;;25.48;;
25988;SDS011;13778;48.236;9.894;2022-08-19T16:05:14;29.48;;;25.38;;
25988;SDS011;13778;48.236;9.894;2022-08-19T16:08:23;27.05;;;23.60;;
25988;SDS011;13778;48.236;9.894;2022-08-19T16:11:13;27.65;;;24.63;;
25988;SDS011;13778;48.236;9.894;2022-08-19T16:14:05;32.08;;;24.42;;
25988;SDS011;13778;48.236;9.894;2022-08-19T16:16:57;25.55;;;22.98;;
25988;SDS011;13778;48.236;9.894;2022-08-19T16:19:47;27.10;;;24.25;;
25988;SDS011;13778;48.236;9.894;2022-08-19T16:22:39;31.67;;;24.83;;
25988;SDS011;13778;48.236;9.894;2022-08-19T16:28:20;29.08;;;25.27;;
25988;SDS011;13778;48.236;9.894;2022-08-19T16:31:12;27.30;;;23.58;;
25988;SDS011;13778;48.236;9.894;2022-08-19T16:36:53;26.73;;;23.75;;
25988;SDS011;13778;48.236;9.894;2022-08-19T16:39:45;28.85;;;24.48;;
25988;SDS011;13778;48.236;9.894;2022-08-19T16:42:35;28.80;;;25.00;;
25988;SDS011;13778;48.236;9.894;2022-08-19T16:45:25;26.17;;;23.48;;
25988;SDS011;13778;48.236;9.894;2022-08-19T16:48:16;28.65;;;25.55;;
25988;SDS011;13778;48.236;9.894;2022-08-19T16:51:06;30.98;;;26.63;;
25988;SDS011;13778;48.236;9.894;2022-08-19T16:53:57;27.93;;;24.83;;
25988;SDS011;13778;48.236;9.894;2022-08-19T16:56:49;30.42;;;27.23;;
25988;SDS011;13778;48.236;9.894;2022-08-19T16:59:40;29.42;;;26.30;;
25988;SDS011;13778;48.236;9.894;2022-08-19T17:02:30;30.17;;;27.05;;
25988;SDS011;13778;48.236;9.894;2022-08-19T17:05:21;30.42;;;26.08;;
25988;SDS011;13778;48.236;9.894;2022-08-19T17:08:12;29.40;;;26.38;;
25988;SDS011;13778;48.236;9.894;2022-08-19T17:11:04;29.83;;;26.52;;
25988;SDS011;13778;48.236;9.894;2022-08-19T17:13:56;30.27;;;26.98;;
25988;SDS011;13778;48.236;9.894;2022-08-19T17:16:47;31.10;;;27.88;;
25988;SDS011;13778;48.236;9.894;2022-08-19T17:19:38;31.55;;;28.35;;
25988;SDS011;13778;48.236;9.894;2022-08-19T17:22:30;31.25;;;27.90;;
25988;SDS011;13778;48.236;9.894;2022-08-19T17:25:21;29.73;;;26.63;;
25988;SDS011;13778;48.236;9.894;2022-08-19T17:28:12;31.90;;;28.60;;